Time;durP1;ratioP1;P1;durP2;ratioP2;P2;SDS_P1;SDS_P2;PMS_P1;PMS_P2;Temp;Humidity;BMP_temperature;BMP_pressure;BME280_temperature;BME280_humidity;BME280_pressure;Samples;Min_cycle;Max_cycle;Signal;HPM_P1;HPM_P2
2021/12/15 00:01:53;;;;;;;24.48;10.75;;;7.60;83.90;;;;;;4164577;28;20403;-72
2021/12/15 00:03:54;;;;;;;30.75;11.90;;;7.70;83.90;;;;;;4158014;28;20025;-72
2021/12/15 00:05:54;;;;;;;29.02;12.00;;;7.70;83.90;;;;;;4169759;28;20033;-72
2021/12/15 00:07:59;;;;;;;29.73;12.23;;;7.70;83.90;;;;;;4172691;28;20033;-72
2021/12/15 00:10:00;;;;;;;28.42;11.40;;;7.70;83.90;;;;;;4169002;28;20120;-73
2021/12/15 00:12:03;;;;;;;33.33;11.15;;;7.70;83.90;;;;;;4168347;28;20037;-72
2021/12/15 00:14:06;;;;;;;31.70;11.70;;;7.70;83.90;;;;;;4165269;28;20059;-72
2021/12/15 00:16:08;;;;;;;30.05;11.57;;;7.70;83.80;;;;;;4169174;28;20029;-72
2021/12/15 00:18:08;;;;;;;27.92;12.30;;;7.70;83.90;;;;;;4176361;28;20406;-72
2021/12/15 00:20:10;;;;;;;33.25;11.77;;;7.70;83.90;;;;;;4167980;28;20032;-72
2021/12/15 00:22:11;;;;;;;24.65;10.18;;;7.70;83.90;;;;;;4172049;28;20147;-72
2021/12/15 00:24:12;;;;;;;25.98;10.82;;;7.70;83.90;;;;;;4171087;28;20036;-72
2021/12/15 00:26:13;;;;;;;27.05;10.52;;;7.70;84.10;;;;;;4171093;28;20729;-72
2021/12/15 00:28:14;;;;;;;26.15;10.80;;;7.70;84.10;;;;;;4174438;28;20088;-72
2021/12/15 00:30:15;;;;;;;25.02;10.50;;;7.70;84.10;;;;;;4164934;28;20033;-72
2021/12/15 00:32:15;;;;;;;26.30;10.13;;;7.70;84.10;;;;;;4170793;28;20407;-72
2021/12/15 00:34:16;;;;;;;30.27;10.68;;;7.70;84.20;;;;;;4171416;28;20056;-72
2021/12/15 00:36:17;;;;;;;26.05;9.30;;;7.70;84.20;;;;;;4171283;28;20037;-72
2021/12/15 00:38:17;;;;;;;30.70;10.05;;;7.80;84.30;;;;;;4171394;28;20057;-73
2021/12/15 00:40:19;;;;;;;21.08;9.00;;;7.80;84.20;;;;;;4171203;28;20117;-72
2021/12/15 00:42:20;;;;;;;25.00;9.63;;;7.80;84.20;;;;;;4154902;28;20025;-72
2021/12/15 00:44:21;;;;;;;24.10;10.10;;;7.70;84.20;;;;;;4171928;28;20052;-72
2021/12/15 00:46:21;;;;;;;26.52;10.45;;;7.80;84.20;;;;;;4173194;28;20529;-72
2021/12/15 00:48:23;;;;;;;28.83;10.95;;;7.70;84.20;;;;;;4176758;28;20589;-72
2021/12/15 00:50:29;;;;;;;26.35;9.80;;;7.70;84.30;;;;;;4168392;28;20140;-72
2021/12/15 00:52:29;;;;;;;31.73;9.95;;;7.70;84.30;;;;;;4172521;28;20025;-72
2021/12/15 00:54:30;;;;;;;25.92;10.20;;;7.80;84.30;;;;;;4161164;28;20053;-72
2021/12/15 00:56:30;;;;;;;27.25;11.27;;;7.80;84.40;;;;;;4170431;28;20029;-72
2021/12/15 00:58:31;;;;;;;30.63;10.80;;;7.80;84.40;;;;;;4170216;28;20021;-72
2021/12/15 01:00:35;;;;;;;25.85;9.23;;;7.80;84.40;;;;;;4168670;28;20028;-72
2021/12/15 01:02:36;;;;;;;29.65;10.23;;;7.80;84.40;;;;;;4186882;28;20029;-72
2021/12/15 01:04:37;;;;;;;23.48;9.32;;;7.80;84.40;;;;;;4164240;28;20706;-72
2021/12/15 01:06:43;;;;;;;29.10;10.10;;;7.80;84.50;;;;;;4168829;28;20025;-72
2021/12/15 01:08:47;;;;;;;28.55;9.40;;;7.80;84.50;;;;;;4173603;28;20033;-72
2021/12/15 01:11:07;;;;;;;23.75;10.35;;;7.80;84.50;;;;;;4155484;28;20036;-72
2021/12/15 01:21:51;;;;;;;26.67;10.63;;;7.80;84.60;;;;;;4152294;28;20100;-72
2021/12/15 01:23:52;;;;;;;24.05;10.10;;;7.90;84.60;;;;;;4154111;28;20021;-72
2021/12/15 01:25:55;;;;;;;20.30;8.43;;;7.90;84.60;;;;;;4172622;28;20041;-72
2021/12/15 01:27:56;;;;;;;28.45;9.68;;;7.90;84.50;;;;;;4170749;28;20124;-72
2021/12/15 01:29:56;;;;;;;23.75;8.35;;;7.90;84.20;;;;;;4169899;28;20094;-72
2021/12/15 01:31:57;;;;;;;20.95;7.65;;;7.90;84.20;;;;;;4168493;28;20029;-72
2021/12/15 01:33:58;;;;;;;25.17;8.57;;;7.90;84.00;;;;;;4172917;28;20037;-72
2021/12/15 01:35:58;;;;;;;21.17;7.43;;;8.00;84.70;;;;;;4167649;28;20028;-72
2021/12/15 01:37:59;;;;;;;21.63;6.78;;;7.90;83.80;;;;;;4172332;28;20041;-72
2021/12/15 01:40:00;;;;;;;19.25;7.03;;;8.00;83.60;;;;;;4171483;28;20033;-72
2021/12/15 01:42:01;;;;;;;20.13;7.07;;;7.90;83.40;;;;;;4171020;28;20083;-72
2021/12/15 01:47:11;;;;;;;17.50;6.53;;;8.00;83.10;;;;;;4163013;28;20813;-72
2021/12/15 01:48:40;;;;;;;17.73;5.78;;;8.00;82.80;;;;;;4156706;28;20041;-72
2021/12/15 01:50:42;;;;;;;19.42;6.25;;;8.00;82.80;;;;;;4169373;28;20128;-72
2021/12/15 01:52:42;;;;;;;19.55;5.82;;;8.00;82.50;;;;;;4156449;28;20052;-72
2021/12/15 01:54:46;;;;;;;15.07;6.18;;;8.00;82.40;;;;;;4154245;28;20553;-72
2021/12/15 01:56:46;;;;;;;15.48;5.68;;;8.00;82.40;;;;;;4176374;28;20034;-72
2021/12/15 01:58:47;;;;;;;22.08;6.82;;;8.00;82.40;;;;;;4170375;28;20027;-72
2021/12/15 02:00:54;;;;;;;22.00;6.22;;;8.00;82.20;;;;;;4174669;28;20035;-72
2021/12/15 02:02:56;;;;;;;16.20;6.05;;;8.00;82.20;;;;;;4176252;28;20033;-72
2021/12/15 02:04:57;;;;;;;21.83;6.75;;;8.10;82.30;;;;;;4196412;28;20707;-72
2021/12/15 02:06:58;;;;;;;14.68;5.80;;;8.10;82.10;;;;;;4173296;28;20040;-72
2021/12/15 02:08:59;;;;;;;16.13;6.03;;;8.10;82.10;;;;;;4172335;28;20025;-71
2021/12/15 02:11:00;;;;;;;21.95;6.47;;;8.00;82.00;;;;;;4147433;28;20534;-72
2021/12/15 02:13:02;;;;;;;18.48;6.10;;;8.00;82.00;;;;;;4174761;28;20083;-72
2021/12/15 02:15:25;;;;;;;19.70;6.63;;;8.00;82.20;;;;;;4174516;28;20515;-71
2021/12/15 02:17:25;;;;;;;18.63;5.72;;;8.00;82.10;;;;;;4171062;28;20036;-72
2021/12/15 02:19:26;;;;;;;23.10;6.13;;;8.00;82.30;;;;;;4171696;28;20033;-72
2021/12/15 02:21:26;;;;;;;15.60;5.32;;;8.00;82.20;;;;;;4171970;28;20049;-71
2021/12/15 02:23:37;;;;;;;24.13;6.05;;;8.00;82.30;;;;;;4167561;28;20188;-71
2021/12/15 02:25:37;;;;;;;19.27;6.25;;;8.00;82.30;;;;;;4182721;22;20152;-77
2021/12/15 02:27:38;;;;;;;15.77;5.95;;;8.00;82.30;;;;;;4138392;28;20069;-77
2021/12/15 02:29:42;;;;;;;23.08;6.82;;;8.00;82.30;;;;;;4141259;28;20023;-76
2021/12/15 02:34:19;;;;;;;28.05;7.75;;;8.00;82.50;;;;;;4138717;28;20026;-77
2021/12/15 02:38:42;;;;;;;25.05;7.07;;;8.00;82.60;;;;;;4107956;28;20034;-76
2021/12/15 02:40:42;;;;;;;;;;;8.00;82.60;;;;;;4122355;28;20045;-76
2021/12/15 02:42:45;;;;;;;22.23;7.80;;;8.00;82.70;;;;;;4126191;28;19905;-76
2021/12/15 02:44:46;;;;;;;20.02;7.85;;;8.10;82.70;;;;;;4110308;28;20058;-76
2021/12/15 02:46:47;;;;;;;20.70;7.43;;;8.10;82.80;;;;;;4123547;28;20035;-76
2021/12/15 02:48:49;;;;;;;24.80;7.10;;;8.10;82.80;;;;;;4123895;28;20030;-76
2021/12/15 02:50:50;;;;;;;23.08;8.02;;;8.00;82.90;;;;;;4108955;28;20039;-76
2021/12/15 02:52:51;;;;;;;18.40;7.43;;;8.10;83.00;;;;;;4121675;28;20040;-77
2021/12/15 02:54:52;;;;;;;21.83;8.05;;;8.10;83.10;;;;;;4126036;28;20113;-76
2021/12/15 02:56:53;;;;;;;16.15;7.57;;;8.10;83.20;;;;;;4090633;28;20101;-76
2021/12/15 02:59:02;;;;;;;28.80;7.63;;;8.10;83.30;;;;;;4122411;28;20377;-76
2021/12/15 03:01:12;;;;;;;27.70;9.15;;;8.10;83.50;;;;;;4122117;28;20022;-76
2021/12/15 03:05:19;;;;;;;23.27;8.45;;;8.10;83.60;;;;;;4124766;28;20452;-76
2021/12/15 03:07:32;;;;;;;22.38;9.13;;;8.20;83.70;;;;;;4122596;28;20038;-76
2021/12/15 03:16:30;;;;;;;26.67;9.93;;;8.20;83.70;;;;;;4123571;28;20029;-76
2021/12/15 03:18:31;;;;;;;24.50;8.80;;;8.20;83.70;;;;;;4125120;28;20026;-76
2021/12/15 03:20:36;;;;;;;27.15;8.80;;;8.20;83.70;;;;;;4124134;28;20061;-76
2021/12/15 03:22:37;;;;;;;32.72;10.18;;;8.20;83.70;;;;;;4107721;28;20413;-76
2021/12/15 03:24:38;;;;;;;30.83;9.10;;;8.30;83.80;;;;;;4125454;28;20038;-76
2021/12/15 03:26:45;;;;;;;25.60;9.75;;;8.30;83.80;;;;;;4124210;28;20040;-76
2021/12/15 03:36:07;;;;;;;26.17;9.45;;;8.30;83.80;;;;;;4115154;28;20050;-76
2021/12/15 03:38:07;;;;;;;30.30;11.80;;;8.40;83.90;;;;;;4139001;28;21438;-76
2021/12/15 03:40:18;;;;;;;27.30;9.50;;;8.30;83.80;;;;;;4125760;28;20030;-76
2021/12/15 03:42:44;;;;;;;34.72;11.13;;;8.40;83.90;;;;;;4125137;28;20030;-76
2021/12/15 03:44:45;;;;;;;37.22;12.07;;;8.40;83.90;;;;;;4124353;28;20479;-76
2021/12/15 03:46:46;;;;;;;29.77;11.55;;;8.30;83.90;;;;;;4139422;28;20038;-76
2021/12/15 03:48:46;;;;;;;32.92;15.15;;;8.40;84.00;;;;;;4127915;28;20748;-75
2021/12/15 03:50:47;;;;;;;30.50;11.27;;;8.40;84.10;;;;;;4126772;28;20364;-75
2021/12/15 03:52:49;;;;;;;24.90;10.07;;;8.50;84.10;;;;;;4111215;28;20383;-76
2021/12/15 03:54:50;;;;;;;30.27;11.05;;;8.40;84.10;;;;;;4125275;28;20392;-76
2021/12/15 03:56:50;;;;;;;32.47;10.68;;;8.50;84.10;;;;;;4124912;28;20027;-76
2021/12/15 03:58:51;;;;;;;28.25;11.90;;;8.50;84.10;;;;;;4125478;28;20041;-76
2021/12/15 04:00:54;;;;;;;28.00;10.68;;;8.50;84.00;;;;;;4110389;28;20065;-76
2021/12/15 04:02:56;;;;;;;25.35;10.75;;;8.50;83.90;;;;;;4124463;28;20085;-76
2021/12/15 04:04:56;;;;;;;30.00;11.52;;;8.50;83.90;;;;;;4113795;28;20038;-76
2021/12/15 04:06:57;;;;;;;26.80;10.35;;;8.40;83.70;;;;;;4121329;28;20031;-76
2021/12/15 04:08:58;;;;;;;32.47;11.85;;;8.50;83.70;;;;;;4124817;28;20197;-76
2021/12/15 04:10:58;;;;;;;28.58;11.48;;;8.50;83.70;;;;;;4127327;28;20022;-76
2021/12/15 04:12:59;;;;;;;28.60;11.07;;;8.40;83.70;;;;;;4125624;28;20612;-76
2021/12/15 04:15:19;;;;;;;29.08;11.73;;;8.40;83.60;;;;;;4119886;28;20668;-77
2021/12/15 04:17:31;;;;;;;31.23;12.25;;;8.40;83.60;;;;;;4133728;28;20797;-76
2021/12/15 04:19:33;;;;;;;29.50;11.75;;;8.40;83.60;;;;;;4096449;28;20031;-77
2021/12/15 04:21:34;;;;;;;32.22;11.30;;;8.40;83.70;;;;;;4110354;28;20525;-76
2021/12/15 04:23:35;;;;;;;28.13;11.65;;;8.40;83.70;;;;;;4122979;28;20042;-77
2021/12/15 04:25:36;;;;;;;37.10;12.02;;;8.40;83.90;;;;;;4125495;28;20433;-76
2021/12/15 04:27:37;;;;;;;32.22;12.88;;;8.40;84.00;;;;;;4134962;28;20117;-77
2021/12/15 04:29:39;;;;;;;36.83;13.50;;;8.40;84.00;;;;;;4107251;28;20023;-77
2021/12/15 04:31:47;;;;;;;35.78;13.00;;;8.40;84.10;;;;;;4123618;28;20062;-76
2021/12/15 04:33:56;;;;;;;35.38;13.27;;;8.40;84.20;;;;;;4109391;28;20023;-76
2021/12/15 04:35:57;;;;;;;32.45;13.65;;;8.40;84.40;;;;;;4120812;28;20607;-76
2021/12/15 04:37:58;;;;;;;33.75;13.10;;;8.40;84.50;;;;;;4109808;28;20065;-76
2021/12/15 04:39:59;;;;;;;35.80;12.38;;;8.50;84.60;;;;;;4123421;28;20476;-76
2021/12/15 04:42:00;;;;;;;31.63;12.82;;;8.40;84.60;;;;;;4119146;28;20540;-76
2021/12/15 04:44:03;;;;;;;47.33;15.15;;;8.40;84.60;;;;;;4136667;28;20396;-77
2021/12/15 04:46:04;;;;;;;36.58;13.52;;;8.40;84.60;;;;;;4110179;28;20539;-76
2021/12/15 04:48:04;;;;;;;38.05;12.77;;;8.50;84.80;;;;;;4124027;28;20035;-76
2021/12/15 04:50:06;;;;;;;40.67;15.07;;;8.50;84.80;;;;;;4104097;28;20031;-76
2021/12/15 04:52:07;;;;;;;34.88;13.18;;;8.50;84.90;;;;;;4126668;28;20037;-76
2021/12/15 04:54:08;;;;;;;32.67;12.77;;;8.50;84.80;;;;;;4128611;28;20120;-76
2021/12/15 04:56:09;;;;;;;36.38;13.35;;;8.50;84.90;;;;;;4122361;28;20035;-76
2021/12/15 04:58:10;;;;;;;30.88;13.90;;;8.60;84.90;;;;;;4124715;28;20111;-76
2021/12/15 05:00:14;;;;;;;35.47;13.05;;;8.60;84.90;;;;;;4124468;28;20030;-76
2021/12/15 05:02:15;;;;;;;39.13;13.88;;;8.60;84.90;;;;;;4109531;28;20509;-76
2021/12/15 05:04:16;;;;;;;35.80;13.77;;;8.60;85.20;;;;;;4122773;28;20030;-76
2021/12/15 05:06:17;;;;;;;34.00;13.20;;;8.60;84.90;;;;;;4127261;28;20443;-76
2021/12/15 05:08:18;;;;;;;31.05;13.35;;;8.60;84.90;;;;;;4120257;28;20038;-76
2021/12/15 05:10:19;;;;;;;36.28;13.82;;;8.70;85.00;;;;;;4125473;28;20127;-76
2021/12/15 05:12:19;;;;;;;40.05;14.27;;;8.70;85.00;;;;;;4123373;28;20093;-76
2021/12/15 05:14:21;;;;;;;34.65;12.90;;;8.70;85.00;;;;;;4116449;28;20370;-76
2021/12/15 05:16:22;;;;;;;32.13;13.65;;;8.70;85.00;;;;;;4110641;28;20468;-76
2021/12/15 05:18:22;;;;;;;27.98;12.60;;;8.70;85.00;;;;;;4122946;28;20038;-76
2021/12/15 05:20:24;;;;;;;38.03;12.45;;;8.70;84.90;;;;;;4123035;28;20112;-76
2021/12/15 05:22:25;;;;;;;38.47;13.77;;;8.70;84.80;;;;;;4142390;28;20100;-76
2021/12/15 05:26:30;;;;;;;32.40;12.45;;;8.70;84.80;;;;;;4119785;28;20030;-76
2021/12/15 05:28:30;;;;;;;35.03;13.65;;;8.70;84.80;;;;;;4114178;28;20041;-76
2021/12/15 05:30:31;;;;;;;30.10;12.90;;;8.70;84.80;;;;;;4119433;28;20042;-76
2021/12/15 05:32:31;;;;;;;32.97;12.77;;;8.70;84.70;;;;;;4125018;28;20036;-76
2021/12/15 05:34:32;;;;;;;35.03;12.95;;;8.70;84.80;;;;;;4119038;28;20041;-76
2021/12/15 05:36:33;;;;;;;30.38;12.23;;;8.70;84.70;;;;;;4121918;28;20030;-76
2021/12/15 05:38:33;;;;;;;37.75;11.43;;;8.80;85.00;;;;;;4122176;28;20092;-76
2021/12/15 05:40:35;;;;;;;31.90;11.65;;;8.80;84.70;;;;;;4120601;28;20049;-76
2021/12/15 05:42:35;;;;;;;27.15;11.18;;;8.70;84.70;;;;;;4119694;28;20030;-76
2021/12/15 05:44:36;;;;;;;35.90;11.57;;;8.80;84.80;;;;;;4118436;28;20045;-76
2021/12/15 05:46:36;;;;;;;34.10;11.18;;;8.80;84.80;;;;;;4124644;28;20288;-76
2021/12/15 05:48:37;;;;;;;25.98;11.23;;;8.80;84.70;;;;;;4092508;28;20030;-76
2021/12/15 05:50:38;;;;;;;27.23;11.68;;;8.80;84.80;;;;;;4122463;28;20034;-76
2021/12/15 05:52:38;;;;;;;31.63;11.23;;;8.80;84.80;;;;;;4126013;28;20032;-76
2021/12/15 05:54:39;;;;;;;30.65;11.82;;;8.80;84.70;;;;;;4125149;28;20111;-76
2021/12/15 05:56:40;;;;;;;24.75;10.50;;;8.80;84.70;;;;;;4132391;28;20060;-76
2021/12/15 05:58:41;;;;;;;25.27;10.68;;;8.90;84.80;;;;;;4123972;28;20037;-76
2021/12/15 06:00:42;;;;;;;27.95;11.23;;;8.90;84.70;;;;;;4123490;28;20737;-76
2021/12/15 06:02:43;;;;;;;31.20;11.05;;;8.90;84.60;;;;;;4135002;28;20030;-76
2021/12/15 06:04:43;;;;;;;33.70;11.85;;;8.90;84.50;;;;;;4096897;28;20070;-76
2021/12/15 06:06:44;;;;;;;33.83;12.20;;;8.90;84.30;;;;;;4136975;28;20105;-76
2021/12/15 06:08:45;;;;;;;23.42;10.98;;;8.90;84.10;;;;;;4122591;28;20037;-76
2021/12/15 06:10:45;;;;;;;25.73;9.98;;;8.90;83.90;;;;;;4123096;28;20049;-77
2021/12/15 06:12:48;;;;;;;28.35;11.10;;;8.90;83.80;;;;;;4124399;28;20035;-76
2021/12/15 06:14:48;;;;;;;30.50;10.18;;;8.80;83.60;;;;;;4109574;28;20052;-78
2021/12/15 06:16:52;;;;;;;32.15;9.63;;;8.80;83.60;;;;;;4126638;28;20419;-77
2021/12/15 06:18:53;;;;;;;31.05;11.30;;;8.80;83.60;;;;;;4117387;28;20105;-76
2021/12/15 06:20:54;;;;;;;25.10;10.77;;;8.90;83.80;;;;;;4111653;28;20043;-76
2021/12/15 06:22:55;;;;;;;26.77;11.50;;;8.80;84.50;;;;;;4124339;28;20022;-76
2021/12/15 06:24:56;;;;;;;28.98;10.48;;;8.90;83.90;;;;;;4124346;28;20552;-76
2021/12/15 06:27:03;;;;;;;27.17;10.40;;;8.80;83.90;;;;;;4110149;28;20037;-76
2021/12/15 06:29:03;;;;;;;25.90;10.77;;;8.80;84.00;;;;;;4112929;28;20031;-76
2021/12/15 06:31:07;;;;;;;26.65;10.43;;;8.90;84.10;;;;;;4103894;28;20049;-76
2021/12/15 06:33:07;;;;;;;24.45;10.30;;;8.80;84.10;;;;;;4119969;28;20102;-76
2021/12/15 06:35:09;;;;;;;26.15;10.43;;;8.90;84.20;;;;;;4137093;28;20133;-76
2021/12/15 06:37:10;;;;;;;29.40;10.77;;;8.80;84.20;;;;;;4106054;28;20106;-76
2021/12/15 06:39:10;;;;;;;31.27;11.48;;;8.80;84.10;;;;;;4124994;28;20026;-76
2021/12/15 06:41:12;;;;;;;27.85;10.13;;;8.80;84.20;;;;;;4133591;28;20364;-76
2021/12/15 06:43:13;;;;;;;35.05;11.68;;;8.90;84.20;;;;;;4121538;28;20042;-76
2021/12/15 06:45:17;;;;;;;23.58;8.95;;;8.90;84.20;;;;;;4102617;28;20405;-76
2021/12/15 06:47:44;;;;;;;25.33;9.57;;;8.90;84.30;;;;;;4117901;28;20180;-76
2021/12/15 06:58:58;;;;;;;24.38;9.07;;;8.90;84.00;;;;;;4114593;28;20318;-76
2021/12/15 07:01:00;;;;;;;23.65;8.40;;;8.90;84.00;;;;;;4139729;28;20059;-76
2021/12/15 07:03:00;;;;;;;27.58;9.13;;;8.90;83.90;;;;;;4125747;28;20030;-76
2021/12/15 07:05:01;;;;;;;26.08;8.82;;;9.00;84.00;;;;;;4125293;28;20018;-76
2021/12/15 07:07:04;;;;;;;21.70;8.90;;;9.00;83.90;;;;;;4126300;28;20050;-76
2021/12/15 07:09:06;;;;;;;22.13;8.52;;;9.00;83.70;;;;;;4126002;28;20027;-77
2021/12/15 07:11:09;;;;;;;31.05;8.93;;;9.00;83.60;;;;;;4124747;28;20030;-77
2021/12/15 07:13:10;;;;;;;20.38;7.75;;;9.00;83.50;;;;;;4105568;28;20429;-77
2021/12/15 07:15:10;;;;;;;20.35;8.27;;;9.00;83.50;;;;;;4128117;28;20092;-76
2021/12/15 07:17:19;;;;;;;26.63;8.52;;;9.10;83.50;;;;;;4124514;28;20508;-76
2021/12/15 07:19:31;;;;;;;23.17;7.85;;;9.00;83.20;;;;;;4106787;28;20106;-76
2021/12/15 07:21:36;;;;;;;22.35;8.13;;;9.00;83.20;;;;;;4129303;28;20077;-76
2021/12/15 07:23:37;;;;;;;26.50;8.63;;;9.00;83.10;;;;;;4120281;28;20120;-76
2021/12/15 07:25:38;;;;;;;24.77;7.90;;;9.00;83.10;;;;;;4110683;28;20489;-76
2021/12/15 07:27:39;;;;;;;22.83;7.47;;;9.10;83.00;;;;;;4141195;28;20025;-76
2021/12/15 07:29:39;;;;;;;25.50;8.07;;;9.10;82.90;;;;;;4119968;28;20038;-76
2021/12/15 07:31:40;;;;;;;32.45;7.88;;;9.10;82.80;;;;;;4128774;28;20027;-76
2021/12/15 07:33:41;;;;;;;24.92;7.40;;;9.00;82.60;;;;;;4103806;28;20410;-77
2021/12/15 07:35:41;;;;;;;22.05;6.80;;;9.00;82.70;;;;;;4125327;28;20031;-76
2021/12/15 07:37:42;;;;;;;25.25;7.38;;;9.00;82.60;;;;;;4126423;28;20612;-77
2021/12/15 07:39:54;;;;;;;21.13;7.05;;;9.10;82.50;;;;;;4109709;28;20168;-76
2021/12/15 07:42:04;;;;;;;23.15;7.25;;;9.00;82.50;;;;;;4111240;28;20058;-76
2021/12/15 07:44:05;;;;;;;25.58;6.75;;;9.00;82.30;;;;;;4116436;28;20031;-76
2021/12/15 07:46:06;;;;;;;21.25;8.20;;;9.00;82.30;;;;;;4127489;28;20403;-76
2021/12/15 07:48:07;;;;;;;25.15;7.63;;;8.90;82.40;;;;;;4129678;28;20082;-76
2021/12/15 07:50:08;;;;;;;30.45;7.05;;;9.00;82.40;;;;;;4121270;28;20105;-76
2021/12/15 07:52:08;;;;;;;25.70;7.72;;;8.90;82.30;;;;;;4130663;28;20031;-76
2021/12/15 07:54:11;;;;;;;24.60;6.40;;;9.00;82.50;;;;;;4115014;28;20034;-76
2021/12/15 07:56:12;;;;;;;22.83;6.45;;;8.90;82.30;;;;;;4133571;28;20033;-76
2021/12/15 07:58:13;;;;;;;28.17;7.88;;;9.00;82.40;;;;;;4124556;28;20101;-76
2021/12/15 08:00:14;;;;;;;32.00;7.43;;;8.90;82.30;;;;;;4130272;28;20030;-76
2021/12/15 08:02:14;;;;;;;23.00;6.28;;;8.90;82.20;;;;;;4112265;28;20145;-77
2021/12/15 08:04:15;;;;;;;25.83;8.00;;;8.90;82.10;;;;;;4125449;28;20027;-76
2021/12/15 08:06:18;;;;;;;33.15;8.30;;;8.90;82.10;;;;;;4128879;28;20042;-77
2021/12/15 08:08:19;;;;;;;17.77;6.07;;;8.90;82.20;;;;;;4128135;28;20540;-76
2021/12/15 08:10:19;;;;;;;27.90;7.10;;;8.90;82.20;;;;;;4119803;28;20030;-77
2021/12/15 08:12:20;;;;;;;19.95;7.07;;;8.90;82.20;;;;;;4127954;28;20037;-76
2021/12/15 08:14:20;;;;;;;23.83;7.10;;;8.90;82.40;;;;;;4130123;28;20038;-76
2021/12/15 08:16:21;;;;;;;20.88;6.93;;;8.80;82.40;;;;;;4143947;28;20029;-76
2021/12/15 08:18:22;;;;;;;20.45;7.45;;;8.90;82.50;;;;;;4127524;28;20502;-76
2021/12/15 08:20:25;;;;;;;15.35;6.05;;;8.80;82.50;;;;;;4128345;28;20034;-76
2021/12/15 08:22:26;;;;;;;24.65;7.28;;;8.90;82.60;;;;;;4111922;28;20027;-76
2021/12/15 08:24:26;;;;;;;23.65;7.78;;;8.90;82.50;;;;;;4096217;29;20621;-76
2021/12/15 08:26:27;;;;;;;24.75;6.55;;;8.80;82.50;;;;;;4150820;23;20049;-75
2021/12/15 08:28:28;;;;;;;18.25;6.10;;;8.90;82.60;;;;;;4140580;28;20036;-75
2021/12/15 08:30:29;;;;;;;19.60;5.93;;;8.90;82.60;;;;;;4157429;28;20450;-75
2021/12/15 08:32:29;;;;;;;19.77;6.15;;;8.90;82.50;;;;;;4155890;28;20400;-75
2021/12/15 08:34:30;;;;;;;20.20;5.78;;;8.90;82.50;;;;;;4163033;28;20087;-75
2021/12/15 08:36:31;;;;;;;22.95;6.82;;;8.90;82.40;;;;;;4150853;28;20083;-75
2021/12/15 08:38:32;;;;;;;18.60;6.00;;;8.90;82.50;;;;;;4151292;28;20031;-75
2021/12/15 08:40:33;;;;;;;30.40;8.25;;;8.90;82.40;;;;;;4129403;28;20049;-75
2021/12/15 08:42:34;;;;;;;29.25;7.22;;;8.90;82.40;;;;;;4148841;28;20153;-75
2021/12/15 08:44:34;;;;;;;29.02;6.65;;;8.90;82.30;;;;;;4148018;28;20109;-75
2021/12/15 08:46:39;;;;;;;26.88;7.18;;;8.90;82.40;;;;;;4148369;28;20041;-75
2021/12/15 08:48:39;;;;;;;22.17;6.45;;;8.90;82.30;;;;;;4149648;28;20124;-76
2021/12/15 08:50:40;;;;;;;28.10;7.05;;;8.90;82.20;;;;;;4148992;28;20057;-75
2021/12/15 08:52:41;;;;;;;27.80;6.55;;;8.90;82.20;;;;;;4132505;28;20030;-76
2021/12/15 08:54:42;;;;;;;27.30;7.00;;;8.80;82.10;;;;;;4148186;28;20475;-75
2021/12/15 08:56:43;;;;;;;25.27;6.65;;;8.90;82.30;;;;;;4145252;28;20028;-75
2021/12/15 08:58:43;;;;;;;22.08;5.85;;;8.80;82.30;;;;;;4163723;28;20029;-75
2021/12/15 09:00:45;;;;;;;39.30;7.78;;;8.80;82.40;;;;;;4149698;28;20033;-75
2021/12/15 09:02:46;;;;;;;35.60;6.47;;;8.90;82.50;;;;;;4131309;28;20037;-76
2021/12/15 09:04:47;;;;;;;19.70;5.85;;;8.80;82.50;;;;;;4150587;28;20030;-75
2021/12/15 09:06:47;;;;;;;27.92;6.82;;;8.80;82.60;;;;;;4139522;28;20048;-75
2021/12/15 09:08:48;;;;;;;24.52;6.40;;;8.80;82.70;;;;;;4148179;28;20041;-75
2021/12/15 09:10:49;;;;;;;20.05;6.28;;;8.80;82.60;;;;;;4131484;28;20339;-75
2021/12/15 09:12:50;;;;;;;28.38;6.40;;;8.90;82.70;;;;;;4145402;28;20041;-76
2021/12/15 09:14:51;;;;;;;24.88;6.32;;;8.90;82.80;;;;;;4132320;28;20492;-75
2021/12/15 09:16:53;;;;;;;24.60;6.28;;;8.90;82.80;;;;;;4148249;28;20029;-75
2021/12/15 09:18:54;;;;;;;23.27;6.68;;;8.90;82.80;;;;;;4148100;28;20033;-75
2021/12/15 09:20:55;;;;;;;24.98;5.55;;;9.00;82.80;;;;;;4148066;28;20042;-75
2021/12/15 09:22:55;;;;;;;22.02;5.45;;;8.90;82.60;;;;;;4155313;28;20390;-75
2021/12/15 09:24:56;;;;;;;21.98;7.18;;;8.90;82.60;;;;;;4146584;28;20040;-75
2021/12/15 09:26:57;;;;;;;20.52;5.78;;;8.90;82.50;;;;;;4147436;28;20362;-75
2021/12/15 09:28:58;;;;;;;20.70;5.82;;;8.90;82.50;;;;;;4146996;28;20041;-75
2021/12/15 09:30:59;;;;;;;21.45;5.43;;;8.90;82.30;;;;;;4114033;28;20109;-75
2021/12/15 09:33:00;;;;;;;16.38;5.43;;;9.00;82.30;;;;;;4149521;28;20038;-75
2021/12/15 09:35:01;;;;;;;26.88;5.97;;;9.00;82.20;;;;;;4147914;28;20038;-75
2021/12/15 09:37:04;;;;;;;16.05;5.82;;;9.00;82.10;;;;;;4147268;28;20038;-75
2021/12/15 09:39:08;;;;;;;18.08;5.35;;;9.00;82.70;;;;;;4155332;28;20490;-75
2021/12/15 09:41:10;;;;;;;15.20;5.30;;;9.00;81.80;;;;;;4145799;28;20369;-76
2021/12/15 09:43:11;;;;;;;18.52;5.53;;;9.00;81.70;;;;;;4130940;28;20101;-75
2021/12/15 09:45:22;;;;;;;26.50;5.97;;;9.00;81.60;;;;;;4147456;28;20032;-75
2021/12/15 09:47:41;;;;;;;24.08;6.30;;;9.00;82.30;;;;;;4149190;28;20029;-76
2021/12/15 10:03:55;;;;;;;23.40;4.18;;;9.20;80.80;;;;;;4145555;28;20537;-75
2021/12/15 10:18:04;;;;;;;24.70;3.95;;;9.20;79.40;;;;;;4137353;28;20061;-75
2021/12/15 10:20:05;;;;;;;21.58;3.40;;;9.20;79.00;;;;;;4140481;28;20128;-75
2021/12/15 10:22:14;;;;;;;20.20;3.10;;;9.20;79.00;;;;;;4148100;28;20022;-75
2021/12/15 10:24:15;;;;;;;13.60;3.25;;;9.20;78.70;;;;;;4145970;28;20033;-76
2021/12/15 10:26:16;;;;;;;14.52;3.42;;;9.20;78.30;;;;;;4147285;28;20111;-76
2021/12/15 10:28:24;;;;;;;14.65;3.17;;;9.20;78.30;;;;;;4130627;28;20042;-75
2021/12/15 10:30:25;;;;;;;17.48;3.33;;;9.30;78.20;;;;;;4145024;28;20038;-75
2021/12/15 10:32:33;;;;;;;14.52;3.28;;;9.30;78.30;;;;;;4146478;28;20041;-75
2021/12/15 10:34:33;;;;;;;14.85;2.95;;;9.30;77.60;;;;;;4128996;28;20034;-75
2021/12/15 10:36:34;;;;;;;9.90;2.63;;;9.30;77.20;;;;;;4137375;28;20133;-75
2021/12/15 10:38:48;;;;;;;12.45;2.83;;;9.30;76.70;;;;;;4150512;28;20467;-75
2021/12/15 10:41:09;;;;;;;8.27;1.90;;;9.20;76.50;;;;;;4138458;28;20034;-76
2021/12/15 10:43:10;;;;;;;20.90;2.60;;;9.20;77.00;;;;;;4153495;28;20025;-75
2021/12/15 10:45:12;;;;;;;9.63;1.83;;;9.20;76.50;;;;;;4149136;28;20030;-75
2021/12/15 10:47:18;;;;;;;17.95;1.90;;;9.20;76.30;;;;;;4147013;28;20117;-76
2021/12/15 10:49:24;;;;;;;17.58;2.75;;;9.20;75.90;;;;;;4145546;28;20021;-75
2021/12/15 10:51:47;;;;;;;12.50;2.15;;;9.10;75.80;;;;;;4145701;28;20506;-75
2021/12/15 10:53:48;;;;;;;20.05;2.63;;;9.20;76.10;;;;;;4147683;28;20060;-75
2021/12/15 10:55:50;;;;;;;9.68;2.63;;;9.20;76.10;;;;;;4128151;28;20034;-75
2021/12/15 10:57:51;;;;;;;12.02;2.42;;;9.10;76.00;;;;;;4139582;28;20471;-76
2021/12/15 10:59:52;;;;;;;12.27;2.25;;;9.20;76.10;;;;;;4146032;28;20084;-75
2021/12/15 11:01:53;;;;;;;10.70;2.17;;;9.20;76.40;;;;;;4144114;28;20100;-75
2021/12/15 11:03:54;;;;;;;6.32;2.10;;;9.20;76.40;;;;;;4146302;28;20471;-75
2021/12/15 11:05:54;;;;;;;21.17;2.97;;;9.20;76.50;;;;;;4146499;28;20380;-75
2021/12/15 11:07:56;;;;;;;14.60;2.70;;;9.20;76.40;;;;;;4145795;28;20037;-76
2021/12/15 11:10:14;;;;;;;20.98;3.65;;;9.20;76.50;;;;;;4145121;28;20060;-75
2021/12/15 11:12:17;;;;;;;22.75;4.35;;;9.20;76.70;;;;;;4127547;28;20101;-75
2021/12/15 11:14:26;;;;;;;19.13;3.83;;;9.20;76.90;;;;;;4146664;28;20041;-76
2021/12/15 11:16:29;;;;;;;32.92;4.05;;;9.20;77.00;;;;;;4138217;28;20076;-76
2021/12/15 11:18:35;;;;;;;24.97;4.13;;;9.20;77.20;;;;;;4145246;28;20109;-75
2021/12/15 11:20:39;;;;;;;16.15;4.07;;;9.20;77.10;;;;;;4161571;28;20276;-75
2021/12/15 11:22:51;;;;;;;17.02;4.22;;;9.20;77.20;;;;;;4151361;28;20040;-76
2021/12/15 11:24:52;;;;;;;18.80;2.78;;;9.30;77.50;;;;;;4145193;28;20037;-75
2021/12/15 11:27:16;;;;;;;16.63;3.25;;;9.20;77.00;;;;;;4145915;28;20116;-75
2021/12/15 11:29:17;;;;;;;14.85;2.55;;;9.20;76.20;;;;;;4144471;28;20105;-75
2021/12/15 11:31:19;;;;;;;14.20;2.75;;;9.30;75.90;;;;;;4133128;28;20097;-75
2021/12/15 11:33:32;;;;;;;14.18;2.25;;;9.20;75.20;;;;;;4154974;28;20522;-75
2021/12/15 11:35:45;;;;;;;11.18;1.63;;;9.20;75.20;;;;;;4139454;28;20030;-75
2021/12/15 11:37:47;;;;;;;9.68;2.15;;;9.30;75.00;;;;;;4147956;28;20087;-75
2021/12/15 11:39:48;;;;;;;9.77;1.88;;;9.30;74.50;;;;;;4153055;28;20389;-76
2021/12/15 11:41:50;;;;;;;10.68;2.03;;;9.20;74.30;;;;;;4144715;28;20377;-76
2021/12/15 11:43:53;;;;;;;10.13;2.30;;;9.30;74.10;;;;;;4147394;28;20095;-75
2021/12/15 11:45:54;;;;;;;12.10;2.40;;;9.20;73.90;;;;;;4140030;28;20767;-75